WBGRWBGG

Guest
Details From WBGR - Miri
To WBGG - Kuching Intl
Flight Number -
Tags decoded
Created
Modified
Stats Distance 277 nm / 513 km
Max Altitude 0 ft / 0 m
Waypoints 4
Social Downloads 2
Likes 0
Share VATSIM

Download

Looking for another format? Having issues loading an existing format? Contact us
Advertisement - Login to hide

Notes

Requested: WBGR EGOBA SARVO G580 PILAX WBGG Unmatched points: EGOBA

Route

WBGR SARVO G580 PILAX WBGG

ID Type Via Altitude Latitude Longitude Leg Dist Tot Dist Heading (true) Name
O WBGR APT - 0 ft / 0 m 4.32207˚ 113.98681˚ - 0 nm - Miri
SARVO FIX - 0 ft / 0 m 3.44167˚ 112.83611˚ 86 nm 86 nm 233° / 232° -
PILAX FIX G580 (AWY-HI) 0 ft / 0 m 2.31889˚ 111.38528˚ 110 nm 196 nm 232° / 232° -
O WBGG APT - 0 ft / 0 m 1.48470˚ 110.34693˚ 79 nm 276 nm 231° / 231° Kuching Intl

Altitude Profile

Advertisement - Login to hide

Weather


0- 5 10 15 20 25 30 35+ Temperature / ° C

Clouds and Precipitation
Forecast for 2017-12-16 00:00 UTC. Updated an hour ago

Ground ~20,000 ft ~40,000 ft Winds

WBGR

Details ICAO WBGR (MYY)
Name Miri
Region Brunei and Malaysia
Timezone Asia/Kuching (UTC+8.0)
Stats Elevation 59 ft / 18 m (AMSL)
Location 4.322068° 113.986806°
Runways 1
Magnetic Variation 0.083° W

METAR

WBGR 152000Z 16004KT 9999 FEW016 SCT150 BKN300 24/23 Q1009

Decode

TAF

TAF WBGR 151100Z 1512/1612 25007KT 9999 SCT016 BKN150 BKN300 TEMPO 1518/1522 5000 RA FEW003 SCT016 BKN150

Decode

Departure Runways

ID Width Length Bearing (true) Bearing (mag) Surface Threshold Offset Overrun Length
02 197 ft / 60 m 9,040 ft / 2,755 m 24.85° 24.93° Asphalt 0 ft / 0 m 200 ft / 61 m
20 197 ft / 60 m 9,040 ft / 2,755 m 204.85° 204.93° Asphalt 0 ft / 0 m 200 ft / 61 m

WBGG

Details ICAO WBGG (KCH)
Name Kuching Intl
Region Brunei and Malaysia
Timezone Asia/Kuching (UTC+8.0)
Stats Elevation 89 ft / 27 m (AMSL)
Location 1.484698° 110.346932°
Runways 1
Magnetic Variation 0.355° E

METAR

WBGG 152000Z VRB01KT 9999 FEW020 SCT150 BKN300 24/23 Q1010 NOSIG

Decode

TAF

TAF WBGG 151700Z 1518/1618 32007KT 9999 FEW020 SCT150 BKN300 TEMPO 1607/1610 4000 SHRA FEW015CB SCT018 BKN150

Decode

Destination Runways

ID Width Length Bearing (true) Bearing (mag) Surface Threshold Offset Overrun Length
07 151 ft / 46 m 8,012 ft / 2,442 m 68.26° 67.90° Asphalt 0 ft / 0 m 0 ft / 0 m
25 151 ft / 46 m 8,012 ft / 2,442 m 248.26° 247.90° Asphalt 320 ft / 98 m 0 ft / 0 m

Approach Navaids

Runway Type Ident Frequency Range Bearing (true) Bearing (mag) Slope Elevation
25 Localiser IKG 110.30 MHz 18 nm / 33 km 248.23° 247.87° - 89 ft / 27 m (AMSL)
25 Glidescope IKG 110.30 MHz 10 nm / 19 km 248.26° 247.90° 3.00° 89 ft / 27 m (AMSL)
25 DME IKG 110.30 MHz 18 nm / 33 km - - - 89 ft / 27 m (AMSL)

Popular Alternatives